createdAt,value
2022-08-14T02:52:55.845Z,66.91
2022-08-14T02:54:03.693Z,64.93
2022-08-14T02:55:07.526Z,62.70
2022-08-14T02:57:13.857Z,61.86
2022-08-14T02:58:08.449Z,62.82
2022-08-14T02:59:14.373Z,62.58
2022-08-14T03:00:25.883Z,61.39
2022-08-14T03:01:31.280Z,60.84
2022-08-14T03:02:56.611Z,59.40
2022-08-14T03:04:02.043Z,57.71
2022-08-14T03:05:05.136Z,55.49
2022-08-14T03:06:10.249Z,53.61
2022-08-14T03:07:12.864Z,52.38
2022-08-14T03:08:22.175Z,51.54
2022-08-14T03:09:25.600Z,53.46
2022-08-14T03:10:48.760Z,56.76
2022-08-14T03:11:52.436Z,58.03
2022-08-14T03:12:57.553Z,60.10
2022-08-14T03:13:59.942Z,60.85
2022-08-14T03:15:14.006Z,61.99
2022-08-14T03:16:26.837Z,62.18
2022-08-14T03:17:32.064Z,62.01
2022-08-14T03:18:54.524Z,63.92
2022-08-14T03:19:56.793Z,65.46
2022-08-14T03:21:11.514Z,67.15
2022-08-14T03:22:27.744Z,67.86
2022-08-14T03:23:39.146Z,68.29
2022-08-14T03:24:41.803Z,68.88
2022-08-14T03:25:44.536Z,69.60
2022-08-14T03:26:48.342Z,69.55
2022-08-14T03:27:58.314Z,70.14
2022-08-14T03:29:02.671Z,70.13
2022-08-14T03:30:05.778Z,70.33
2022-08-14T03:31:24.423Z,70.47
2022-08-14T03:32:33.633Z,70.25
2022-08-14T03:33:40.178Z,70.57
2022-08-14T03:34:48.372Z,71.44
2022-08-14T03:36:05.114Z,71.70
2022-08-14T03:37:50.883Z,71.78
2022-08-14T03:39:12.321Z,71.44
2022-08-14T03:39:58.203Z,71.27
2022-08-14T03:41:00.623Z,71.15
2022-08-14T03:42:03.380Z,70.88
2022-08-14T03:43:10.269Z,70.95
2022-08-14T03:45:18.747Z,70.40
2022-08-14T03:45:37.405Z,71.91
2022-08-14T03:46:54.667Z,71.83
2022-08-14T03:48:01.654Z,71.59
2022-08-14T03:49:06.305Z,71.65
2022-08-14T03:50:15.253Z,71.18
2022-08-14T03:51:30.587Z,71.45
2022-08-14T03:52:40.498Z,70.76
2022-08-14T03:53:44.847Z,71.76
2022-08-14T03:54:54.511Z,70.90
2022-08-14T03:56:00.602Z,70.89
2022-08-14T03:57:03.479Z,70.83
2022-08-14T03:58:10.057Z,70.44
2022-08-14T03:59:17.698Z,70.24
2022-08-14T04:00:43.702Z,70.16
2022-08-14T04:01:45.853Z,68.07
2022-08-14T04:03:06.598Z,63.13
2022-08-14T04:04:16.438Z,57.31
2022-08-14T04:05:21.557Z,54.09
2022-08-14T04:06:28.275Z,51.78
2022-08-14T04:07:35.964Z,49.10
2022-08-14T04:08:41.889Z,47.79
2022-08-14T04:09:44.265Z,45.57
2022-08-14T04:10:47.743Z,42.85
2022-08-14T04:11:50.187Z,43.99
2022-08-14T04:12:53.449Z,42.96
2022-08-14T04:13:57.307Z,42.86
2022-08-14T04:15:01.871Z,41.74
2022-08-14T04:16:12.333Z,40.98
2022-08-14T04:17:15.083Z,40.27
2022-08-14T04:18:18.981Z,41.27
2022-08-14T04:19:24.178Z,41.96
2022-08-14T04:20:27.014Z,41.77
2022-08-14T04:21:30.793Z,40.79
2022-08-14T04:22:44.390Z,39.39
2022-08-14T04:23:49.012Z,39.24
2022-08-14T04:25:03.323Z,38.56
2022-08-14T04:26:14.452Z,37.71
2022-08-14T04:27:17.336Z,37.72
2022-08-14T04:29:08.998Z,37.67
2022-08-14T04:29:44.917Z,38.60
2022-08-14T04:30:55.249Z,37.87
2022-08-14T04:33:02.074Z,37.75
2022-08-14T04:33:25.858Z,36.55
2022-08-14T04:34:28.685Z,36.98
2022-08-14T04:35:55.185Z,36.55
2022-08-14T04:37:21.954Z,34.92
2022-08-14T04:38:46.963Z,34.06
2022-08-14T04:40:08.805Z,34.11
2022-08-14T04:41:31.413Z,34.11
2022-08-14T04:42:52.202Z,34.43
2022-08-14T04:43:54.999Z,33.57
2022-08-14T04:45:00.992Z,33.42
2022-08-14T04:46:56.189Z,32.90
2022-08-14T04:47:58.261Z,32.26
2022-08-14T04:49:02.530Z,34.14
2022-08-14T04:50:10.421Z,35.89
2022-08-14T04:51:14.936Z,34.77
2022-08-14T04:52:23.282Z,35.92
2022-08-14T04:53:35.652Z,35.11
2022-08-14T04:54:38.499Z,35.83
2022-08-14T04:55:46.080Z,35.45
2022-08-14T04:56:52.239Z,34.94
2022-08-14T04:57:58.469Z,34.20
2022-08-14T04:59:10.100Z,33.42
2022-08-14T05:00:16.217Z,34.73
2022-08-14T05:01:20.432Z,34.32
2022-08-14T05:02:25.667Z,32.99
2022-08-14T05:03:30.273Z,32.64
2022-08-14T05:04:33.053Z,32.45
2022-08-14T05:05:41.988Z,33.10
2022-08-14T05:06:45.515Z,32.73
2022-08-14T05:08:09.921Z,33.56
2022-08-14T05:09:14.281Z,32.84
2022-08-14T05:10:21.958Z,31.64
2022-08-14T05:11:27.550Z,32.19
2022-08-14T05:13:12.633Z,31.06
2022-08-14T05:14:33.934Z,30.47
2022-08-14T05:15:14.887Z,30.09
2022-08-14T05:16:17.356Z,28.84
2022-08-14T05:17:19.523Z,28.77
2022-08-14T05:19:19.161Z,28.96
2022-08-14T05:21:04.409Z,28.33
2022-08-14T05:21:57.554Z,28.74
2022-08-14T05:22:38.503Z,27.95
2022-08-14T05:23:41.167Z,28.84
2022-08-14T05:24:44.166Z,28.97
2022-08-14T05:25:48.625Z,30.59
2022-08-14T05:26:55.325Z,31.11
2022-08-14T05:28:00.734Z,30.45
2022-08-14T05:29:02.867Z,29.14
2022-08-14T05:30:16.738Z,28.67
2022-08-14T05:31:20.396Z,28.77
2022-08-14T05:32:27.358Z,28.08
2022-08-14T05:33:33.192Z,27.78
2022-08-14T05:34:37.510Z,26.45
2022-08-14T05:35:42.436Z,25.75
2022-08-14T05:36:50.412Z,26.25
2022-08-14T05:38:01.499Z,25.10
2022-08-14T05:39:13.027Z,25.31
2022-08-14T05:40:18.920Z,26.02
2022-08-14T05:41:21.906Z,26.52
2022-08-14T05:42:29.031Z,26.02
2022-08-14T05:43:41.365Z,26.22
2022-08-14T05:44:47.140Z,25.96
2022-08-14T05:45:51.768Z,26.19
2022-08-14T05:46:53.907Z,25.44
2022-08-14T05:47:57.187Z,26.39
2022-08-14T05:49:01.930Z,26.04
2022-08-14T05:50:17.668Z,24.47
2022-08-14T05:51:21.981Z,24.72
2022-08-14T05:52:38.358Z,25.00
2022-08-14T05:53:42.253Z,24.61
2022-08-14T05:54:44.756Z,23.80
2022-08-14T05:55:49.908Z,25.07
2022-08-14T05:56:55.301Z,24.79
2022-08-14T05:58:01.061Z,25.98
2022-08-14T05:59:03.502Z,24.41
2022-08-14T06:00:09.123Z,23.51
2022-08-14T06:01:15.650Z,24.79
2022-08-14T06:02:17.836Z,23.93
2022-08-14T06:03:24.098Z,23.72
2022-08-14T06:04:26.762Z,23.35
2022-08-14T06:05:31.535Z,23.58
2022-08-14T06:06:38.478Z,23.16
2022-08-14T06:07:42.267Z,22.05
2022-08-14T06:08:47.630Z,25.20
2022-08-14T06:09:51.111Z,24.75
2022-08-14T06:11:03.125Z,23.98
2022-08-14T06:12:06.556Z,23.63
2022-08-14T06:13:09.285Z,23.50
2022-08-14T06:14:18.801Z,23.80
2022-08-14T06:15:29.663Z,24.39
2022-08-14T06:16:33.063Z,22.97
2022-08-14T06:18:04.436Z,22.90
2022-08-14T06:19:06.737Z,22.50
2022-08-14T06:20:14.827Z,23.78
2022-08-14T06:21:17.505Z,25.51
2022-08-14T06:22:19.967Z,25.04
2022-08-14T06:23:22.946Z,25.06
2022-08-14T06:24:25.965Z,24.76
2022-08-14T06:25:28.986Z,23.71
2022-08-14T06:26:31.771Z,23.74
2022-08-14T06:27:52.173Z,23.16
2022-08-14T06:28:54.919Z,23.37
2022-08-14T06:29:59.815Z,22.45
2022-08-14T06:31:01.856Z,21.90
2022-08-14T06:32:36.536Z,21.77
2022-08-14T06:35:01.419Z,22.97
2022-08-14T06:35:10.796Z,22.09
2022-08-14T06:36:12.958Z,23.05
2022-08-14T06:37:20.674Z,22.61
2022-08-14T06:38:23.936Z,22.82
2022-08-14T06:39:36.626Z,21.25
2022-08-14T06:40:40.348Z,23.25
2022-08-14T06:41:59.413Z,22.61
2022-08-14T06:43:06.984Z,22.79
2022-08-14T06:44:10.179Z,21.86
2022-08-14T06:45:13.354Z,24.02
2022-08-14T06:46:32.264Z,23.86
2022-08-14T06:47:42.490Z,23.44
2022-08-14T06:48:49.498Z,23.74
2022-08-14T06:49:56.531Z,23.35
2022-08-14T06:51:00.602Z,22.99
2022-08-14T06:52:03.299Z,23.57
2022-08-14T06:53:07.881Z,24.08
2022-08-14T06:54:09.963Z,23.56
2022-08-14T06:55:14.027Z,24.57
2022-08-14T06:56:16.997Z,25.31
2022-08-14T06:57:21.624Z,25.99
2022-08-14T06:58:28.712Z,25.19
2022-08-14T06:59:31.208Z,24.71
2022-08-14T07:00:35.875Z,24.66
2022-08-14T07:01:56.858Z,23.55
2022-08-14T07:03:19.431Z,23.11
2022-08-14T07:04:42.536Z,21.52
2022-08-14T07:05:57.598Z,22.06
2022-08-14T07:07:00.544Z,22.09
2022-08-14T07:08:05.968Z,21.64
2022-08-14T07:09:10.922Z,24.30
2022-08-14T07:10:17.264Z,25.13
2022-08-14T07:11:19.988Z,24.42
2022-08-14T07:12:35.001Z,23.79
2022-08-14T07:13:45.228Z,24.62
2022-08-14T07:14:53.763Z,25.73
2022-08-14T07:16:05.589Z,24.59
2022-08-14T07:17:11.136Z,24.78
2022-08-14T07:18:14.016Z,24.35
2022-08-14T07:19:18.037Z,25.33
2022-08-14T07:20:31.022Z,24.42
2022-08-14T07:21:35.107Z,25.69
2022-08-14T07:22:49.919Z,25.15
2022-08-14T07:23:59.101Z,24.85
2022-08-14T07:25:01.360Z,26.25
2022-08-14T07:26:05.921Z,27.24
2022-08-14T07:27:08.291Z,27.36
2022-08-14T07:28:20.443Z,26.24
2022-08-14T07:29:26.228Z,25.15
2022-08-14T07:30:33.727Z,24.99
2022-08-14T07:31:37.573Z,24.79
2022-08-14T07:32:40.440Z,24.36
2022-08-14T07:33:51.743Z,24.05
2022-08-14T07:34:53.841Z,24.82
2022-08-14T07:36:03.328Z,24.55
2022-08-14T07:37:25.397Z,24.20
2022-08-14T07:38:33.999Z,22.91
2022-08-14T07:39:38.808Z,22.99
2022-08-14T07:40:45.572Z,22.86
2022-08-14T07:41:52.263Z,22.40
2022-08-14T07:43:13.485Z,22.88
2022-08-14T07:44:29.077Z,24.38
2022-08-14T07:45:35.759Z,25.00
2022-08-14T07:46:40.983Z,25.22
2022-08-14T07:47:46.562Z,23.93
2022-08-14T07:48:57.094Z,23.93
2022-08-14T07:50:11.863Z,24.25
2022-08-14T07:51:20.298Z,23.71
2022-08-14T07:52:30.661Z,24.10
2022-08-14T07:53:39.249Z,24.21
2022-08-14T07:54:45.916Z,24.38
2022-08-14T07:56:00.345Z,24.44
2022-08-14T07:57:22.336Z,23.69
2022-08-14T07:58:30.299Z,23.08
2022-08-14T07:59:41.042Z,23.29
2022-08-14T08:00:45.120Z,24.20
2022-08-14T08:01:58.599Z,23.06
2022-08-14T08:03:01.160Z,22.32
2022-08-14T08:04:04.624Z,22.40
2022-08-14T08:05:21.697Z,22.23
2022-08-14T08:06:24.216Z,22.94
2022-08-14T08:07:30.946Z,22.28
2022-08-14T08:08:33.411Z,22.25
2022-08-14T08:09:37.400Z,22.06
2022-08-14T08:10:57.291Z,22.28
2022-08-14T08:12:09.343Z,23.80
2022-08-14T08:13:23.936Z,23.88
2022-08-14T08:14:27.205Z,23.82
2022-08-14T08:15:37.328Z,22.87
2022-08-14T08:16:39.283Z,22.52
2022-08-14T08:17:53.546Z,21.83
2022-08-14T08:19:12.499Z,22.69
2022-08-14T08:20:20.767Z,23.05
2022-08-14T08:21:23.332Z,24.21
2022-08-14T08:22:32.308Z,24.11
2022-08-14T08:23:40.411Z,24.35
2022-08-14T08:24:45.711Z,25.21
2022-08-14T08:25:50.520Z,25.85
2022-08-14T08:26:53.484Z,27.10
2022-08-14T08:28:08.461Z,27.72
2022-08-14T08:29:18.693Z,28.14
2022-08-14T08:30:22.753Z,28.74
2022-08-14T08:31:32.558Z,29.00
2022-08-14T08:32:44.470Z,30.26
2022-08-14T08:33:52.853Z,31.01
2022-08-14T08:34:56.771Z,30.83
2022-08-14T08:36:06.037Z,30.97
2022-08-14T08:37:10.241Z,31.06
2022-08-14T08:39:16.526Z,30.40
2022-08-14T08:40:03.228Z,28.88
2022-08-14T08:41:09.608Z,28.14
2022-08-14T08:42:13.711Z,26.99
2022-08-14T08:43:18.417Z,28.03
2022-08-14T08:44:31.928Z,28.22
2022-08-14T08:45:37.083Z,27.67
2022-08-14T08:46:40.279Z,28.38
2022-08-14T08:47:46.564Z,28.31
2022-08-14T08:50:00.181Z,29.34
2022-08-14T08:51:05.067Z,29.70
2022-08-14T08:52:15.294Z,29.93
2022-08-14T08:53:36.061Z,30.29
2022-08-14T08:54:39.565Z,30.12
2022-08-14T08:55:46.011Z,30.29
2022-08-14T08:56:51.954Z,30.24
2022-08-14T08:58:00.787Z,29.18
2022-08-14T08:59:15.943Z,29.49
2022-08-14T09:00:25.819Z,29.03
2022-08-14T09:01:31.488Z,28.79
2022-08-14T09:02:35.361Z,28.31
2022-08-14T09:03:43.915Z,28.04
2022-08-14T09:04:53.301Z,27.83
2022-08-14T09:06:23.278Z,28.08
2022-08-14T09:07:28.694Z,28.53
2022-08-14T09:08:37.044Z,29.01
2022-08-14T09:09:54.499Z,29.42
2022-08-14T09:11:19.109Z,29.59
2022-08-14T09:12:23.514Z,29.43
2022-08-14T09:13:26.872Z,29.27
2022-08-14T09:14:35.299Z,29.99
2022-08-14T09:15:45.487Z,30.08
2022-08-14T09:16:50.380Z,29.97
2022-08-14T09:17:54.613Z,30.12
2022-08-14T09:18:57.595Z,30.24
2022-08-14T09:20:02.142Z,31.25
2022-08-14T09:21:08.658Z,30.65
2022-08-14T09:22:35.883Z,31.43
2022-08-14T09:24:26.815Z,30.57
2022-08-14T09:25:01.110Z,30.55
2022-08-14T09:26:21.122Z,30.32
2022-08-14T09:27:24.281Z,30.82
2022-08-14T09:28:26.706Z,31.00
2022-08-14T09:29:31.784Z,31.13
2022-08-14T09:31:53.483Z,31.26
2022-08-14T09:33:22.968Z,31.54
2022-08-14T09:34:59.070Z,31.98
2022-08-14T09:36:26.611Z,32.23
2022-08-14T09:37:50.061Z,32.19
2022-08-14T09:39:23.249Z,32.19
2022-08-14T09:40:51.987Z,31.89
2022-08-14T09:42:33.371Z,31.98
2022-08-14T09:43:55.573Z,32.24
2022-08-14T09:45:08.555Z,31.79
2022-08-14T09:46:11.174Z,31.91
2022-08-14T09:47:19.340Z,31.99
2022-08-14T09:48:30.523Z,31.41
2022-08-14T09:49:39.992Z,30.84
2022-08-14T09:50:53.784Z,31.10
2022-08-14T09:52:04.851Z,30.93
2022-08-14T09:54:17.790Z,30.60
2022-08-14T09:55:18.883Z,30.96
2022-08-14T09:56:31.089Z,31.40
2022-08-14T09:57:33.608Z,30.90
2022-08-14T09:58:46.896Z,31.25
2022-08-14T09:59:50.402Z,32.26
2022-08-14T10:00:59.728Z,31.88
2022-08-14T10:02:02.506Z,32.00
2022-08-14T10:03:06.238Z,32.50
2022-08-14T10:04:32.857Z,32.40
2022-08-14T10:05:39.474Z,32.47
2022-08-14T10:06:47.742Z,32.27
2022-08-14T10:07:59.200Z,32.06
2022-08-14T10:09:03.192Z,31.85
2022-08-14T10:10:25.466Z,32.05
2022-08-14T10:11:36.584Z,32.07
2022-08-14T10:12:44.861Z,31.68
2022-08-14T10:13:55.853Z,31.60
2022-08-14T10:14:58.656Z,32.17
2022-08-14T10:16:02.257Z,32.16
2022-08-14T10:17:08.680Z,31.88
2022-08-14T10:18:18.233Z,32.51
2022-08-14T10:19:31.297Z,32.05
2022-08-14T10:20:52.981Z,32.60
2022-08-14T10:23:12.485Z,32.46
2022-08-14T10:23:44.672Z,33.06
2022-08-14T10:24:47.173Z,32.56
2022-08-14T10:26:07.109Z,32.63
2022-08-14T10:27:24.100Z,32.40
2022-08-14T10:29:03.479Z,32.32
2022-08-14T10:29:55.931Z,32.16
2022-08-14T10:31:03.155Z,32.34
2022-08-14T10:32:18.031Z,32.08
2022-08-14T10:33:30.155Z,32.00
2022-08-14T10:35:51.991Z,31.94
2022-08-14T10:37:04.853Z,31.84
2022-08-14T10:38:34.681Z,31.69
2022-08-14T10:39:37.958Z,31.47
2022-08-14T10:40:52.365Z,31.80
2022-08-14T10:42:18.190Z,31.33
2022-08-14T10:43:26.466Z,31.51
2022-08-14T10:44:47.680Z,31.52
2022-08-14T10:46:21.716Z,31.71
2022-08-14T10:47:39.677Z,31.69
2022-08-14T10:49:04.518Z,31.63
2022-08-14T10:50:12.132Z,31.77
2022-08-14T10:51:26.078Z,31.93
2022-08-14T10:52:33.916Z,32.40
2022-08-14T10:53:39.148Z,32.46
2022-08-14T10:54:47.334Z,32.15
2022-08-14T10:55:59.631Z,32.33
2022-08-14T10:57:13.312Z,32.73
2022-08-14T10:58:17.139Z,33.41
2022-08-14T10:59:34.849Z,33.09
2022-08-14T11:00:56.513Z,32.51
2022-08-14T11:02:35.777Z,32.45
2022-08-14T11:03:56.244Z,32.80
2022-08-14T11:05:07.866Z,32.63
2022-08-14T11:06:20.023Z,32.95
2022-08-14T11:07:22.492Z,33.03
2022-08-14T11:08:32.888Z,33.42
2022-08-14T11:09:41.932Z,33.59
2022-08-14T11:10:48.292Z,33.07
2022-08-14T11:12:33.881Z,32.91
2022-08-14T11:13:24.528Z,32.20
2022-08-14T11:14:27.122Z,32.92
2022-08-14T11:15:29.447Z,33.39
2022-08-14T11:16:38.249Z,33.20
2022-08-14T11:17:46.074Z,33.10
2022-08-14T11:18:51.502Z,32.64
2022-08-14T11:20:00.125Z,32.89
2022-08-14T11:21:02.387Z,32.94
2022-08-14T11:22:06.403Z,33.25
2022-08-14T11:23:10.448Z,32.38
2022-08-14T11:24:54.984Z,32.71
2022-08-14T11:25:43.784Z,33.35
2022-08-14T11:26:47.455Z,32.82
2022-08-14T11:27:52.758Z,33.51
2022-08-14T11:28:56.983Z,32.86
2022-08-14T11:30:53.562Z,33.12
2022-08-14T11:31:38.555Z,33.15
2022-08-14T11:32:44.544Z,32.89
2022-08-14T11:33:58.160Z,33.41
2022-08-14T11:35:03.699Z,33.73
2022-08-14T11:36:18.709Z,33.44
2022-08-14T11:37:35.220Z,34.28
2022-08-14T11:38:45.184Z,33.78
2022-08-14T11:39:48.984Z,34.19
2022-08-14T11:40:53.413Z,33.99
2022-08-14T11:41:57.993Z,33.71
2022-08-14T11:43:03.280Z,33.77
2022-08-14T11:44:17.615Z,33.30
2022-08-14T11:45:37.001Z,33.60
2022-08-14T11:46:41.286Z,33.18
2022-08-14T11:48:12.539Z,32.88
2022-08-14T11:49:06.814Z,33.18
2022-08-14T11:50:34.073Z,33.18
2022-08-14T11:51:53.431Z,33.42
2022-08-14T11:53:02.610Z,33.56
2022-08-14T11:54:09.046Z,33.40
2022-08-14T11:55:14.654Z,33.72
2022-08-14T11:56:19.409Z,33.45
2022-08-14T11:57:28.113Z,33.34
2022-08-14T11:58:32.415Z,33.41
2022-08-14T11:59:38.555Z,33.85
2022-08-14T12:00:57.423Z,33.96
2022-08-14T12:03:00.689Z,33.80
2022-08-14T12:03:46.329Z,33.49
2022-08-14T12:04:54.794Z,33.40
2022-08-14T12:06:09.531Z,33.67
2022-08-14T12:07:30.748Z,33.40
2022-08-14T12:08:35.711Z,33.26
2022-08-14T12:09:43.070Z,33.49
2022-08-14T12:10:46.661Z,33.44
2022-08-14T12:11:51.639Z,33.74
2022-08-14T12:12:56.833Z,33.87
2022-08-14T12:14:08.921Z,34.24
2022-08-14T12:15:36.193Z,34.05
2022-08-14T12:16:38.838Z,34.15
2022-08-14T12:17:49.739Z,33.99
2022-08-14T12:18:58.566Z,34.60
2022-08-14T12:20:05.622Z,34.49
2022-08-14T12:21:36.770Z,34.83
2022-08-14T12:22:43.115Z,34.58
2022-08-14T12:23:47.891Z,35.00
2022-08-14T12:24:55.747Z,35.00
2022-08-14T12:26:31.919Z,34.93
2022-08-14T12:27:59.273Z,34.98
2022-08-14T12:29:13.354Z,34.61
2022-08-14T12:30:27.057Z,35.24
2022-08-14T12:31:44.764Z,34.41
2022-08-14T12:32:49.301Z,33.46
2022-08-14T12:34:00.191Z,33.29
2022-08-14T12:35:02.236Z,33.84
2022-08-14T12:36:11.594Z,33.65
2022-08-14T12:37:17.377Z,33.50
2022-08-14T12:38:21.235Z,33.58
2022-08-14T12:39:24.074Z,33.40
2022-08-14T12:40:31.523Z,34.01
2022-08-14T12:41:38.556Z,33.76
2022-08-14T12:42:47.493Z,33.25
2022-08-14T12:44:04.843Z,34.00
2022-08-14T12:45:12.354Z,33.88
2022-08-14T12:46:37.781Z,34.03
2022-08-14T12:47:42.776Z,34.15
2022-08-14T12:48:50.344Z,34.33
2022-08-14T12:49:57.503Z,34.29
2022-08-14T12:51:00.028Z,34.18
2022-08-14T12:52:03.763Z,34.28
2022-08-14T12:53:17.275Z,33.98
2022-08-14T12:54:28.455Z,33.93
2022-08-14T12:56:17.451Z,34.00
2022-08-14T12:57:19.854Z,34.08
2022-08-14T12:58:47.461Z,34.48
2022-08-14T12:59:53.596Z,34.41
2022-08-14T13:01:17.055Z,33.98
2022-08-14T13:02:26.377Z,34.45
2022-08-14T13:03:30.491Z,34.03
2022-08-14T13:04:35.456Z,34.37
2022-08-14T13:05:38.182Z,34.09
2022-08-14T13:06:50.940Z,34.25
2022-08-14T13:07:54.136Z,34.01
2022-08-14T13:09:00.327Z,34.08
2022-08-14T13:10:46.202Z,34.14
2022-08-14T13:11:45.299Z,33.85
2022-08-14T13:13:11.896Z,33.89
2022-08-14T13:14:17.244Z,34.19
2022-08-14T13:15:19.929Z,34.38
2022-08-14T13:16:33.664Z,34.02
2022-08-14T13:17:55.983Z,34.50
2022-08-14T13:19:01.887Z,34.45
2022-08-14T13:20:09.998Z,34.50
2022-08-14T13:21:14.062Z,34.25
2022-08-14T13:22:32.091Z,33.97
2022-08-14T13:23:37.530Z,33.83
2022-08-14T13:24:41.589Z,34.18
2022-08-14T13:25:55.543Z,34.19
2022-08-14T13:27:00.612Z,34.42
2022-08-14T13:28:03.451Z,34.48
2022-08-14T13:29:06.586Z,34.91
2022-08-14T13:30:14.481Z,35.13
2022-08-14T13:31:30.050Z,35.12
2022-08-14T13:32:34.220Z,35.56
2022-08-14T13:33:37.377Z,35.16
2022-08-14T13:34:46.071Z,35.46
2022-08-14T13:35:51.324Z,35.02
2022-08-14T13:37:03.639Z,35.23
2022-08-14T13:38:07.089Z,35.18
2022-08-14T13:39:19.675Z,35.45
2022-08-14T13:40:26.107Z,35.28
2022-08-14T13:41:36.564Z,35.35
2022-08-14T13:42:44.700Z,35.43
2022-08-14T13:43:59.451Z,35.49
2022-08-14T13:45:09.037Z,35.58
2022-08-14T13:46:14.756Z,35.17
2022-08-14T13:47:46.765Z,35.35
2022-08-14T13:49:14.854Z,35.34
2022-08-14T13:50:20.842Z,35.24
2022-08-14T13:51:27.686Z,35.63
2022-08-14T13:52:52.136Z,35.81
2022-08-14T13:54:10.526Z,35.57
2022-08-14T13:55:18.549Z,35.25
2022-08-14T13:56:36.698Z,35.08
2022-08-14T13:57:49.700Z,35.43
2022-08-14T13:59:06.583Z,35.41
2022-08-14T14:00:13.075Z,35.88
2022-08-14T14:01:18.225Z,35.85
2022-08-14T14:02:33.654Z,35.49
2022-08-14T14:03:38.134Z,36.24
2022-08-14T14:04:46.165Z,36.15
2022-08-14T14:05:55.358Z,35.78
2022-08-14T14:07:04.147Z,35.94
2022-08-14T14:08:18.515Z,35.44
2022-08-14T14:09:32.216Z,35.52
2022-08-14T14:10:40.357Z,35.92
2022-08-14T14:11:52.859Z,36.20
2022-08-14T14:12:57.898Z,35.33
2022-08-14T14:14:04.977Z,35.11
2022-08-14T14:15:12.760Z,35.35
2022-08-14T14:16:26.582Z,35.35
2022-08-14T14:17:35.115Z,35.33
2022-08-14T14:18:42.650Z,35.47
2022-08-14T14:19:47.887Z,35.60
2022-08-14T14:20:53.171Z,35.37
2022-08-14T14:22:06.585Z,35.65
2022-08-14T14:23:17.549Z,35.75
2022-08-14T14:24:20.257Z,35.81
2022-08-14T14:25:22.609Z,35.97
2022-08-14T14:26:26.901Z,36.04
2022-08-14T14:27:40.321Z,35.97
2022-08-14T14:28:50.808Z,36.54
2022-08-14T14:30:00.456Z,36.37
2022-08-14T14:31:10.101Z,35.79
2022-08-14T14:32:21.316Z,35.87
2022-08-14T14:34:52.861Z,36.37
2022-08-14T14:36:02.034Z,35.91
2022-08-14T14:37:12.667Z,35.85
2022-08-14T14:38:21.841Z,35.80
2022-08-14T14:40:52.627Z,35.75
2022-08-14T14:41:05.560Z,36.13
2022-08-14T14:42:09.442Z,36.40
2022-08-14T14:43:17.663Z,36.23
2022-08-14T14:44:34.591Z,36.00
2022-08-14T14:45:37.929Z,35.97
2022-08-14T14:46:43.577Z,35.81
2022-08-14T14:47:49.480Z,36.00
2022-08-14T14:48:53.957Z,36.01
2022-08-14T14:50:00.567Z,35.79
2022-08-14T14:51:03.802Z,36.02
2022-08-14T14:52:10.916Z,35.89
2022-08-14T14:53:27.700Z,36.10
2022-08-14T14:54:37.624Z,36.60
2022-08-14T14:56:46.814Z,36.71
2022-08-14T14:57:17.378Z,36.59
2022-08-14T14:58:21.467Z,36.20
2022-08-14T14:59:25.791Z,36.12
2022-08-14T15:00:35.214Z,36.42
2022-08-14T15:01:48.184Z,36.32
2022-08-14T15:02:57.808Z,36.28
2022-08-14T15:04:07.903Z,36.14
2022-08-14T15:05:23.405Z,35.96
2022-08-14T15:06:34.430Z,36.10
2022-08-14T15:07:39.197Z,36.01
2022-08-14T15:08:56.309Z,36.44
2022-08-14T15:10:00.943Z,37.09
2022-08-14T15:11:03.250Z,37.23
2022-08-14T15:12:16.435Z,37.43
2022-08-14T15:13:28.270Z,36.31
2022-08-14T15:14:56.069Z,37.31
2022-08-14T15:15:59.826Z,36.52
2022-08-14T15:17:02.944Z,37.82
2022-08-14T15:18:36.654Z,38.04
2022-08-14T15:19:33.574Z,38.22
2022-08-14T15:20:36.475Z,38.95
2022-08-14T15:21:39.520Z,38.54
2022-08-14T15:22:51.458Z,38.71
2022-08-14T15:23:54.048Z,37.79
2022-08-14T15:24:59.644Z,37.62
2022-08-14T15:26:03.469Z,37.76
2022-08-14T15:27:11.519Z,37.94
2022-08-14T15:28:21.477Z,38.35
2022-08-14T15:29:26.479Z,36.85
2022-08-14T15:30:32.526Z,38.17
2022-08-14T15:31:36.597Z,38.32
2022-08-14T15:32:41.043Z,38.38
2022-08-14T15:34:44.380Z,39.05
2022-08-14T15:35:29.827Z,38.82
2022-08-14T15:36:37.181Z,38.89
2022-08-14T15:37:42.469Z,39.36
2022-08-14T15:38:46.585Z,38.18
2022-08-14T15:39:52.635Z,38.72
2022-08-14T15:40:56.306Z,38.95
2022-08-14T15:42:14.523Z,38.64
2022-08-14T15:43:22.489Z,38.59
2022-08-14T15:44:29.924Z,38.63
2022-08-14T15:45:36.528Z,38.95
2022-08-14T15:46:45.432Z,39.01
2022-08-14T15:47:51.093Z,39.29
2022-08-14T15:48:55.022Z,39.29
2022-08-14T15:50:06.085Z,39.27
2022-08-14T15:51:10.792Z,40.06
2022-08-14T15:52:15.844Z,41.60
2022-08-14T15:53:36.726Z,41.91
2022-08-14T15:54:41.996Z,41.03
2022-08-14T15:55:44.372Z,40.66
2022-08-14T15:56:59.925Z,40.87
2022-08-14T15:58:06.456Z,40.08
2022-08-14T15:59:13.116Z,40.91
2022-08-14T16:00:44.211Z,41.69
2022-08-14T16:01:54.480Z,40.34
2022-08-14T16:02:57.207Z,41.92
2022-08-14T16:04:04.089Z,40.96
2022-08-14T16:05:15.071Z,41.36
2022-08-14T16:06:26.827Z,41.91
2022-08-14T16:07:30.316Z,41.07
2022-08-14T16:08:35.925Z,41.57
2022-08-14T16:09:38.939Z,41.21
2022-08-14T16:10:46.251Z,41.50
2022-08-14T16:11:53.720Z,40.45
2022-08-14T16:12:57.195Z,40.41
2022-08-14T16:14:02.345Z,39.87
2022-08-14T16:15:10.104Z,41.59
2022-08-14T16:16:47.517Z,41.46
2022-08-14T16:17:56.412Z,41.25
2022-08-14T16:19:09.638Z,41.57
2022-08-14T16:20:41.597Z,41.14
2022-08-14T16:22:02.708Z,40.63
2022-08-14T16:23:11.430Z,41.14
2022-08-14T16:24:27.898Z,41.64
2022-08-14T16:25:36.572Z,41.41
2022-08-14T16:26:39.036Z,41.74
2022-08-14T16:27:48.367Z,42.17
2022-08-14T16:29:02.815Z,42.12
2022-08-14T16:30:25.062Z,42.08
2022-08-14T16:31:36.158Z,43.12
2022-08-14T16:32:54.810Z,42.56
2022-08-14T16:34:00.598Z,42.86
2022-08-14T16:35:20.859Z,43.13
2022-08-14T16:36:30.644Z,43.76
2022-08-14T16:37:38.000Z,43.70
2022-08-14T16:38:48.195Z,44.30
2022-08-14T16:39:55.379Z,44.14
2022-08-14T16:41:45.608Z,43.91
2022-08-14T16:43:12.901Z,42.84
2022-08-14T16:44:31.722Z,43.46
2022-08-14T16:45:43.893Z,43.34
2022-08-14T16:46:47.595Z,42.78
2022-08-14T16:47:50.766Z,41.69
2022-08-14T16:48:55.440Z,41.73
2022-08-14T16:50:05.233Z,42.59
2022-08-14T16:51:10.935Z,43.80
2022-08-14T16:52:26.174Z,43.74
2022-08-14T16:53:39.854Z,43.67
2022-08-14T16:54:45.215Z,44.92
2022-08-14T16:56:07.431Z,43.21
2022-08-14T16:57:23.667Z,42.59
2022-08-14T16:58:30.227Z,44.00
2022-08-14T16:59:55.758Z,43.48
2022-08-14T17:01:16.326Z,43.49
2022-08-14T17:02:42.858Z,43.61
2022-08-14T17:03:59.949Z,44.58
2022-08-14T17:05:23.211Z,45.26
2022-08-14T17:06:55.169Z,44.41
2022-08-14T17:08:42.674Z,46.04
2022-08-14T17:09:45.135Z,45.20
2022-08-14T17:10:47.535Z,45.79
2022-08-14T17:12:07.391Z,46.62
2022-08-14T17:13:59.774Z,46.92
2022-08-14T17:14:57.575Z,46.60
2022-08-14T17:16:24.878Z,46.80
2022-08-14T17:17:44.088Z,44.62
2022-08-14T17:19:00.549Z,44.82
2022-08-14T17:20:54.555Z,44.22
2022-08-14T17:21:38.088Z,44.84
2022-08-14T17:22:56.926Z,44.96
2022-08-14T17:24:51.421Z,44.61
2022-08-14T17:25:31.607Z,45.26
2022-08-14T17:26:46.303Z,44.78
2022-08-14T17:28:52.657Z,44.22
2022-08-14T17:29:55.988Z,43.94
2022-08-14T17:31:03.613Z,43.95
2022-08-14T17:32:22.024Z,44.29
2022-08-14T17:33:40.598Z,44.38
2022-08-14T17:34:50.614Z,44.06
2022-08-14T17:36:21.473Z,44.35
2022-08-14T17:37:29.687Z,44.27
2022-08-14T17:38:39.811Z,44.11
2022-08-14T17:39:47.200Z,44.08
2022-08-14T17:41:13.023Z,44.02
2022-08-14T17:42:43.071Z,44.45
2022-08-14T17:43:42.844Z,44.36
2022-08-14T17:44:47.261Z,44.66
2022-08-14T17:45:50.047Z,44.48
2022-08-14T17:47:10.565Z,44.92
2022-08-14T17:49:10.814Z,44.98
2022-08-14T17:49:56.071Z,44.89
2022-08-14T17:51:01.182Z,44.62
2022-08-14T17:52:18.442Z,45.23
2022-08-14T17:53:38.876Z,45.07
2022-08-14T17:54:59.100Z,45.19
2022-08-14T17:56:06.167Z,45.24
2022-08-14T17:57:13.193Z,45.33
2022-08-14T17:58:21.470Z,45.69
2022-08-14T17:59:25.003Z,46.08
2022-08-14T18:00:29.187Z,46.25
2022-08-14T18:01:38.818Z,46.52
2022-08-14T18:02:51.062Z,46.57
2022-08-14T18:03:56.389Z,46.82
2022-08-14T18:05:03.445Z,46.90
2022-08-14T18:06:07.122Z,47.14
2022-08-14T18:07:50.307Z,47.31
2022-08-14T18:08:41.123Z,46.98